Time;durP1;ratioP1;P1;durP2;ratioP2;P2;SDS_P1;SDS_P2;PMS_P1;PMS_P2;Temp;Humidity;BMP_temperature;BMP_pressure;BME280_temperature;BME280_humidity;BME280_pressure;Samples;Min_cycle;Max_cycle;Signal;HPM_P1;HPM_P2
2021/03/20 00:00:17;;;;;;;19.73;11.60;;;4.50;82.00;;;;;;5013330;28;20093;-74
2021/03/20 00:02:43;;;;;;;12.07;6.47;;;4.40;82.20;;;;;;5026790;28;20026;-76
2021/03/20 00:05:10;;;;;;;18.90;10.13;;;4.20;81.40;;;;;;5004867;28;20106;-75
2021/03/20 00:07:36;;;;;;;12.00;7.00;;;4.00;81.60;;;;;;5024805;28;20068;-75
2021/03/20 00:10:05;;;;;;;14.63;7.70;;;3.90;82.00;;;;;;5021510;28;20052;-74
2021/03/20 00:12:31;;;;;;;12.70;8.17;;;3.80;82.10;;;;;;5032839;28;20029;-75
2021/03/20 00:14:56;;;;;;;10.63;6.57;;;3.70;82.40;;;;;;4976829;28;20033;-75
2021/03/20 00:17:22;;;;;;;17.13;10.37;;;3.60;82.10;;;;;;5008362;28;20038;-75
2021/03/20 00:19:48;;;;;;;26.10;16.17;;;3.50;82.60;;;;;;5010292;28;20029;-75
2021/03/20 00:22:13;;;;;;;16.10;8.23;;;3.70;84.10;;;;;;4995663;28;20159;-75
2021/03/20 00:24:39;;;;;;;9.40;5.10;;;3.80;84.30;;;;;;4980546;28;20782;-79
2021/03/20 00:27:05;;;;;;;12.37;8.77;;;3.60;83.20;;;;;;4982863;28;20089;-74
2021/03/20 00:29:30;;;;;;;12.53;6.40;;;3.50;83.40;;;;;;5003905;28;20401;-74
2021/03/20 00:31:56;;;;;;;20.07;10.10;;;3.40;83.20;;;;;;4985991;28;20033;-73
2021/03/20 00:34:22;;;;;;;12.33;7.40;;;3.40;83.80;;;;;;5005135;28;20026;-74
2021/03/20 00:36:48;;;;;;;15.80;8.80;;;3.40;83.90;;;;;;5004633;28;20042;-74
2021/03/20 00:39:13;;;;;;;12.93;6.93;;;3.50;84.40;;;;;;4980780;28;20402;-75
2021/03/20 00:41:40;;;;;;;10.97;5.87;;;3.40;84.00;;;;;;5009638;28;20500;-75
2021/03/20 00:44:06;;;;;;;14.07;7.50;;;3.40;83.90;;;;;;4984741;28;20034;-75
2021/03/20 00:46:32;;;;;;;17.10;9.40;;;3.30;84.10;;;;;;4999642;28;20033;-75
2021/03/20 00:48:58;;;;;;;17.97;9.57;;;3.40;84.70;;;;;;4984742;28;20042;-76
2021/03/20 00:51:24;;;;;;;17.07;10.40;;;3.50;85.20;;;;;;4987630;28;20022;-76
2021/03/20 00:53:49;;;;;;;15.30;9.13;;;3.60;85.90;;;;;;4991876;28;20441;-76
2021/03/20 00:56:15;;;;;;;14.50;8.13;;;3.80;85.90;;;;;;4999606;28;20029;-76
2021/03/20 00:58:43;;;;;;;10.93;5.77;;;3.90;85.70;;;;;;4989090;28;20377;-75
2021/03/20 01:01:17;;;;;;;9.03;4.93;;;3.90;84.70;;;;;;4996704;28;20022;-74
2021/03/20 01:03:43;;;;;;;8.03;4.47;;;3.70;83.60;;;;;;5005597;28;20359;-78
2021/03/20 01:06:12;;;;;;;11.13;6.97;;;3.60;83.40;;;;;;5002493;28;20022;-73
2021/03/20 01:08:38;;;;;;;8.33;5.47;;;3.40;83.60;;;;;;5006743;28;20033;-75
2021/03/20 01:11:05;;;;;;;9.33;5.30;;;3.40;83.40;;;;;;4999678;28;20030;-75
2021/03/20 01:13:30;;;;;;;9.47;5.57;;;3.30;83.50;;;;;;4997930;28;20437;-74
2021/03/20 01:15:56;;;;;;;9.70;6.20;;;3.30;83.50;;;;;;4997950;28;20026;-74
2021/03/20 01:18:22;;;;;;;10.90;5.20;;;3.30;84.00;;;;;;5000204;28;20390;-74
2021/03/20 01:20:48;;;;;;;7.97;5.77;;;3.40;84.30;;;;;;5003195;28;20032;-77
2021/03/20 01:23:14;;;;;;;8.97;5.27;;;3.20;83.40;;;;;;5007952;28;20053;-75
2021/03/20 01:25:40;;;;;;;10.33;6.60;;;3.10;83.50;;;;;;4991739;28;20045;-75
2021/03/20 01:28:07;;;;;;;12.80;7.13;;;3.00;83.80;;;;;;4980416;28;20125;-74
2021/03/20 01:30:39;;;;;;;13.67;7.03;;;3.20;84.80;;;;;;5003727;28;20153;-74
2021/03/20 01:33:05;;;;;;;8.77;5.77;;;3.30;84.80;;;;;;5000194;28;20027;-74
2021/03/20 01:35:32;;;;;;;12.00;7.83;;;3.30;84.70;;;;;;4998291;28;20034;-75
2021/03/20 01:37:59;;;;;;;11.93;7.40;;;3.30;84.90;;;;;;5002364;28;20709;-75
2021/03/20 01:40:35;;;;;;;10.40;7.50;;;3.40;85.20;;;;;;5009125;28;20050;-76
2021/03/20 01:43:00;;;;;;;10.37;7.17;;;3.40;84.80;;;;;;4998737;28;20040;-74
2021/03/20 01:45:31;;;;;;;11.10;7.30;;;3.30;84.10;;;;;;5000173;28;20030;-73
2021/03/20 01:48:09;;;;;;;12.10;7.90;;;3.30;84.10;;;;;;4999771;28;20030;-74
2021/03/20 01:50:49;;;;;;;10.60;7.20;;;3.10;84.00;;;;;;4997939;28;20034;-75
2021/03/20 01:53:38;;;;;;;10.30;7.37;;;3.10;83.70;;;;;;5004073;28;20026;-74
2021/03/20 01:56:07;;;;;;;10.53;7.43;;;2.90;83.60;;;;;;5025433;28;20045;-74
2021/03/20 01:58:34;;;;;;;15.73;8.70;;;2.70;83.80;;;;;;5003708;28;20033;-74
2021/03/20 02:01:08;;;;;;;14.50;8.10;;;2.60;83.90;;;;;;4997177;28;20018;-74
2021/03/20 02:03:34;;;;;;;11.13;8.40;;;2.50;84.20;;;;;;4993450;28;20053;-75
2021/03/20 02:06:01;;;;;;;13.67;8.60;;;2.50;84.50;;;;;;4989240;28;20112;-74
2021/03/20 02:08:28;;;;;;;10.27;8.13;;;2.60;84.60;;;;;;4995863;28;20387;-74
2021/03/20 02:11:01;;;;;;;13.23;8.10;;;2.60;84.60;;;;;;5000033;28;20029;-77
2021/03/20 02:13:39;;;;;;;10.00;8.13;;;2.60;84.60;;;;;;5002868;28;20129;-73
2021/03/20 02:16:15;;;;;;;10.70;8.30;;;2.50;84.70;;;;;;4999155;28;20061;-74
2021/03/20 02:18:44;;;;;;;11.70;8.50;;;2.50;84.90;;;;;;5006383;28;20037;-73
2021/03/20 02:21:29;;;;;;;11.23;8.67;;;2.60;85.20;;;;;;4995543;28;20026;-74
2021/03/20 02:24:33;;;;;;;10.40;8.43;;;2.60;85.00;;;;;;4995676;28;20105;-75
2021/03/20 02:27:04;;;;;;;11.33;8.73;;;2.60;85.10;;;;;;4986375;28;20053;-75
2021/03/20 02:29:48;;;;;;;11.07;8.10;;;2.80;85.90;;;;;;4988767;28;20046;-75
2021/03/20 02:32:35;;;;;;;12.00;8.67;;;2.80;85.50;;;;;;4988101;28;20369;-75
2021/03/20 02:35:23;;;;;;;11.63;9.20;;;2.70;85.40;;;;;;4988002;28;20045;-78
2021/03/20 02:38:14;;;;;;;10.87;8.80;;;2.80;86.50;;;;;;4989603;28;20069;-75
2021/03/20 02:40:48;;;;;;;10.20;8.63;;;2.80;85.80;;;;;;4989777;28;20038;-78
2021/03/20 02:43:32;;;;;;;11.27;8.80;;;2.70;85.40;;;;;;4985893;28;20285;-75
2021/03/20 02:46:35;;;;;;;11.93;9.03;;;2.50;85.40;;;;;;4989738;28;20830;-76
2021/03/20 02:49:31;;;;;;;13.07;8.77;;;2.50;85.30;;;;;;4985297;28;20121;-76
2021/03/20 02:52:23;;;;;;;11.43;8.80;;;2.50;85.50;;;;;;4988814;28;20029;-77
2021/03/20 02:54:55;;;;;;;10.47;8.73;;;2.50;86.00;;;;;;4991781;28;20033;-76
2021/03/20 02:57:43;;;;;;;10.67;8.37;;;2.70;86.70;;;;;;4988581;28;20034;-77
2021/03/20 03:00:17;;;;;;;12.20;8.57;;;2.90;87.00;;;;;;4985302;28;20023;-77
2021/03/20 03:02:44;;;;;;;10.67;7.83;;;3.00;86.90;;;;;;4988999;28;20459;-76
2021/03/20 03:05:45;;;;;;;9.57;7.80;;;3.10;87.30;;;;;;4946875;28;20038;-75
2021/03/20 03:08:16;;;;;;;11.57;8.90;;;3.10;87.20;;;;;;4978426;28;20050;-76
2021/03/20 03:10:51;;;;;;;11.47;8.47;;;3.20;86.80;;;;;;4989694;28;20610;-75
2021/03/20 03:13:22;;;;;;;12.17;9.10;;;3.00;85.80;;;;;;4987904;28;20029;-75
2021/03/20 03:15:58;;;;;;;12.77;9.13;;;2.80;85.60;;;;;;4984196;28;20360;-75
2021/03/20 03:18:42;;;;;;;13.27;8.77;;;2.70;85.90;;;;;;4989607;28;20033;-76
2021/03/20 03:21:09;;;;;;;12.20;8.87;;;2.80;86.50;;;;;;4987406;28;20026;-75
2021/03/20 03:23:38;;;;;;;12.40;8.70;;;2.80;86.20;;;;;;5001754;28;20049;-76
2021/03/20 03:26:26;;;;;;;12.93;8.47;;;2.70;86.00;;;;;;5004036;28;20045;-75
2021/03/20 03:28:57;;;;;;;9.83;8.27;;;2.60;85.50;;;;;;5025316;28;20028;-76
2021/03/20 03:31:35;;;;;;;15.63;9.00;;;2.60;86.00;;;;;;5017430;28;20025;-76
2021/03/20 03:34:24;;;;;;;11.90;8.80;;;2.50;85.50;;;;;;5026340;28;20079;-80
2021/03/20 03:37:04;;;;;;;14.10;8.97;;;2.30;85.50;;;;;;5003351;28;20124;-72
2021/03/20 03:40:01;;;;;;;10.07;8.53;;;2.30;85.60;;;;;;5001871;28;20481;-74
2021/03/20 03:42:27;;;;;;;11.63;8.57;;;2.20;85.70;;;;;;5001752;28;20084;-72
2021/03/20 03:44:54;;;;;;;10.70;9.00;;;2.20;85.60;;;;;;4996605;28;20479;-73
2021/03/20 03:47:24;;;;;;;12.43;8.23;;;2.30;86.10;;;;;;4995169;28;20053;-72
2021/03/20 03:49:53;;;;;;;12.93;9.00;;;2.20;85.90;;;;;;5020136;28;20026;-73
2021/03/20 03:52:19;;;;;;;10.00;7.90;;;2.20;86.30;;;;;;5015131;28;20033;-74
2021/03/20 03:54:45;;;;;;;12.77;8.43;;;2.30;86.40;;;;;;4986250;28;20033;-73
2021/03/20 03:57:43;;;;;;;9.53;7.77;;;2.30;86.10;;;;;;5002878;28;20034;-73
2021/03/20 04:00:24;;;;;;;10.37;7.90;;;2.20;85.80;;;;;;4990361;28;20041;-74
2021/03/20 04:03:13;;;;;;;10.90;7.23;;;2.20;85.90;;;;;;5008229;28;20046;-74
2021/03/20 04:06:04;;;;;;;9.20;6.67;;;2.10;85.90;;;;;;5002336;28;21253;-73
2021/03/20 04:08:59;;;;;;;11.40;7.10;;;2.10;85.80;;;;;;5002192;28;20533;-74
2021/03/20 04:11:31;;;;;;;7.00;6.10;;;1.90;85.40;;;;;;5024341;28;20136;-73
2021/03/20 04:14:18;;;;;;;9.23;6.23;;;1.80;85.30;;;;;;5002741;28;20112;-73
2021/03/20 04:17:09;;;;;;;9.23;6.23;;;1.60;85.20;;;;;;5008305;28;20017;-74
2021/03/20 04:19:46;;;;;;;8.83;5.77;;;1.70;85.50;;;;;;4998400;28;20033;-74
2021/03/20 04:22:26;;;;;;;7.97;5.80;;;1.80;86.10;;;;;;5023464;28;20030;-73
2021/03/20 04:25:07;;;;;;;8.17;5.73;;;1.80;86.00;;;;;;5021669;28;20057;-72
2021/03/20 04:27:38;;;;;;;6.40;4.77;;;1.80;86.20;;;;;;5019935;28;20022;-72
2021/03/20 04:30:09;;;;;;;6.73;4.77;;;1.70;85.60;;;;;;5000798;28;20497;-75
2021/03/20 04:32:56;;;;;;;6.03;4.10;;;1.70;85.40;;;;;;5030588;28;20044;-75
2021/03/20 04:35:30;;;;;;;5.57;3.90;;;1.60;84.90;;;;;;5012089;28;20057;-73
2021/03/20 04:37:59;;;;;;;4.57;3.70;;;1.60;85.00;;;;;;5022505;28;20041;-72
2021/03/20 04:40:30;;;;;;;5.20;3.43;;;1.50;84.90;;;;;;5025950;28;20029;-73
2021/03/20 04:42:57;;;;;;;6.77;3.83;;;1.50;85.00;;;;;;5001992;28;20038;-72
2021/03/20 04:45:31;;;;;;;6.23;3.37;;;1.40;83.90;;;;;;4996220;28;20026;-73
2021/03/20 04:48:04;;;;;;;5.73;3.57;;;1.30;83.80;;;;;;5008965;28;20069;-75
2021/03/20 04:50:32;;;;;;;5.67;3.10;;;1.20;83.80;;;;;;5020026;28;20033;-73
2021/03/20 04:52:59;;;;;;;5.70;3.77;;;1.10;83.90;;;;;;4999018;28;20061;-73
2021/03/20 04:55:28;;;;;;;7.40;3.43;;;1.20;84.60;;;;;;5026874;28;20021;-74
2021/03/20 04:57:59;;;;;;;5.50;3.90;;;1.30;85.00;;;;;;5021305;28;20105;-74
2021/03/20 05:00:24;;;;;;;5.80;3.93;;;1.50;86.40;;;;;;5026787;28;20026;-75
2021/03/20 05:03:05;;;;;;;7.50;3.80;;;1.70;86.90;;;;;;5001087;28;20500;-73
2021/03/20 05:05:49;;;;;;;6.03;3.23;;;1.80;87.40;;;;;;5011554;28;20144;-73
2021/03/20 05:08:21;;;;;;;5.20;3.17;;;1.90;87.20;;;;;;5014064;28;20030;-72
2021/03/20 05:11:14;;;;;;;5.63;3.10;;;1.90;86.60;;;;;;5026363;28;20057;-72
2021/03/20 05:14:02;;;;;;;4.68;2.45;;;2.00;86.20;;;;;;5013735;28;20040;-72
2021/03/20 05:16:57;;;;;;;4.07;2.80;;;2.00;86.30;;;;;;5029732;28;20461;-72
2021/03/20 05:19:24;;;;;;;4.43;2.50;;;2.10;86.70;;;;;;5021159;28;20044;-70
2021/03/20 05:21:51;;;;;;;3.30;2.10;;;2.20;87.00;;;;;;5003837;28;20084;-72
2021/03/20 05:24:38;;;;;;;5.47;2.57;;;2.20;87.00;;;;;;5024237;28;20049;-73
2021/03/20 05:27:07;;;;;;;4.00;2.60;;;2.30;86.90;;;;;;5008654;28;20461;-73
2021/03/20 05:29:33;;;;;;;4.70;2.00;;;2.30;86.30;;;;;;5017958;28;20026;-73
2021/03/20 05:32:01;;;;;;;4.23;2.30;;;2.30;85.70;;;;;;5008297;28;20044;-73
2021/03/20 05:34:32;;;;;;;4.80;2.33;;;2.30;85.60;;;;;;5007526;28;20409;-71
2021/03/20 05:36:58;;;;;;;4.40;2.20;;;2.30;85.50;;;;;;5005299;28;20050;-74
2021/03/20 05:39:25;;;;;;;3.53;1.63;;;2.30;85.50;;;;;;5003190;28;20497;-74
2021/03/20 05:42:29;;;;;;;5.73;2.17;;;2.30;85.40;;;;;;5028795;28;20473;-73
2021/03/20 05:45:10;;;;;;;;;;;2.30;85.20;;;;;;5020496;28;20022;-74
2021/03/20 05:47:54;;;;;;;4.33;2.20;;;2.30;85.00;;;;;;5004425;28;19909;-73
2021/03/20 05:50:41;;;;;;;4.70;1.97;;;2.30;85.10;;;;;;5023981;28;20025;-74
2021/03/20 05:53:22;;;;;;;5.57;2.50;;;2.30;84.30;;;;;;4998632;28;20455;-75
2021/03/20 05:55:58;;;;;;;4.57;2.37;;;2.30;83.80;;;;;;4999950;28;20026;-75
2021/03/20 05:58:53;;;;;;;3.30;1.93;;;2.30;83.20;;;;;;5025232;28;20041;-76
2021/03/20 06:01:49;;;;;;;2.77;1.97;;;2.10;81.40;;;;;;5017734;28;20018;-76
2021/03/20 06:04:33;;;;;;;2.37;1.57;;;1.90;80.50;;;;;;5006879;28;20034;-78
2021/03/20 06:07:13;;;;;;;5.43;2.30;;;1.70;81.00;;;;;;5002136;28;20033;-75
2021/03/20 06:10:06;;;;;;;5.80;1.90;;;1.80;82.50;;;;;;5006768;28;20022;-74
2021/03/20 06:12:56;;;;;;;4.80;2.10;;;1.90;82.70;;;;;;5017455;28;20056;-74
2021/03/20 06:15:37;;;;;;;4.77;1.97;;;2.40;83.00;;;;;;5015260;28;20084;-74
2021/03/20 06:18:21;;;;;;;3.93;1.67;;;3.10;79.10;;;;;;5004161;28;20049;-74
2021/03/20 06:21:11;;;;;;;7.40;2.20;;;3.60;75.40;;;;;;5020779;28;20036;-73
2021/03/20 06:24:14;;;;;;;3.37;1.87;;;4.20;73.70;;;;;;5017726;28;20650;-72
2021/03/20 06:26:41;;;;;;;4.20;1.87;;;5.10;72.30;;;;;;5003324;28;20079;-73
2021/03/20 06:29:31;;;;;;;4.83;2.20;;;6.10;70.30;;;;;;5003904;28;20058;-73
2021/03/20 06:32:17;;;;;;;4.37;1.57;;;6.90;66.70;;;;;;5023594;28;20067;-73
2021/03/20 06:35:18;;;;;;;3.73;1.87;;;7.50;65.80;;;;;;5027017;28;20104;-73
2021/03/20 06:37:55;;;;;;;2.30;1.60;;;8.10;62.50;;;;;;4981315;28;20144;-73
2021/03/20 06:40:40;;;;;;;3.53;2.10;;;8.60;61.10;;;;;;5023458;28;20104;-76
2021/03/20 06:43:08;;;;;;;3.17;1.97;;;8.80;58.50;;;;;;5024194;28;20105;-72
2021/03/20 06:45:34;;;;;;;2.27;1.20;;;9.20;58.20;;;;;;5016576;28;20374;-71
2021/03/20 06:48:09;;;;;;;3.33;2.07;;;9.50;57.80;;;;;;5017127;28;20046;-73
2021/03/20 06:50:43;;;;;;;11.00;2.00;;;10.00;55.60;;;;;;5024004;28;20036;-72
2021/03/20 06:53:11;;;;;;;3.60;1.90;;;10.30;53.50;;;;;;5015805;28;20028;-73
2021/03/20 06:55:41;;;;;;;3.10;2.00;;;10.30;52.30;;;;;;5024933;28;20028;-73
2021/03/20 06:58:18;;;;;;;2.70;1.80;;;10.30;53.80;;;;;;5005043;28;20436;-73
2021/03/20 07:00:45;;;;;;;3.47;1.73;;;10.30;51.90;;;;;;5023014;28;20801;-72
2021/03/20 07:03:13;;;;;;;2.97;1.80;;;10.70;51.70;;;;;;5017950;28;20529;-73
2021/03/20 07:06:00;;;;;;;2.53;1.73;;;10.70;50.40;;;;;;5002883;28;20029;-77
2021/03/20 07:08:43;;;;;;;3.63;1.67;;;10.90;48.90;;;;;;5009870;28;20033;-79
2021/03/20 07:11:29;;;;;;;;;;;10.20;49.90;;;;;;5016626;28;20037;-75
2021/03/20 07:13:59;;;;;;;4.20;2.23;;;9.60;51.00;;;;;;5021887;28;19917;-75
2021/03/20 07:16:28;;;;;;;3.03;1.90;;;8.50;53.20;;;;;;5003320;28;20025;-79
2021/03/20 07:18:57;;;;;;;3.90;2.00;;;7.50;55.50;;;;;;5025707;28;20087;-74
2021/03/20 07:21:28;;;;;;;3.50;2.13;;;7.10;58.00;;;;;;5006841;28;20478;-81
2021/03/20 07:23:57;;;;;;;5.00;2.60;;;7.10;59.40;;;;;;5023232;28;20547;-75
2021/03/20 07:26:24;;;;;;;4.80;2.60;;;7.60;59.60;;;;;;5004352;28;20496;-81
2021/03/20 07:28:53;;;;;;;4.37;2.27;;;8.20;58.10;;;;;;5023367;28;20106;-74
2021/03/20 07:31:19;;;;;;;4.93;3.10;;;8.80;55.80;;;;;;5022881;28;20029;-75
2021/03/20 07:33:48;;;;;;;4.20;2.93;;;9.30;54.90;;;;;;5022708;28;20025;-78
2021/03/20 07:36:17;;;;;;;4.00;3.10;;;9.70;52.50;;;;;;5023058;28;20025;-74
2021/03/20 07:38:45;;;;;;;4.97;3.60;;;9.90;51.50;;;;;;5005469;28;20200;-75
2021/03/20 07:41:17;;;;;;;5.20;3.13;;;9.70;52.30;;;;;;5021367;28;20024;-76
2021/03/20 07:43:59;;;;;;;6.53;2.55;;;10.10;52.50;;;;;;5022790;28;20030;-77
2021/03/20 07:46:26;;;;;;;4.00;2.65;;;10.90;50.10;;;;;;5002747;28;20026;-81
2021/03/20 07:49:02;;;;;;;4.27;2.70;;;11.40;47.50;;;;;;5006009;28;20033;-79
2021/03/20 07:51:28;;;;;;;6.47;4.57;;;11.20;47.00;;;;;;5003255;28;20141;-80
2021/03/20 07:53:54;;;;;;;5.67;3.80;;;11.00;48.50;;;;;;5022286;28;20025;-75
2021/03/20 07:56:37;;;;;;;4.60;3.40;;;11.40;49.00;;;;;;5023093;28;20038;-74
2021/03/20 07:59:28;;;;;;;8.57;4.95;;;12.00;47.10;;;;;;5021274;28;20065;-74
2021/03/20 08:02:00;;;;;;;7.57;4.50;;;12.20;46.20;;;;;;5003336;28;20105;-74
2021/03/20 08:04:51;;;;;;;5.20;3.97;;;12.20;44.70;;;;;;5005100;28;20049;-74
2021/03/20 08:07:49;;;;;;;4.90;2.07;;;12.20;44.30;;;;;;5014349;28;20183;-74
2021/03/20 08:10:44;;;;;;;5.17;2.77;;;12.40;43.20;;;;;;5009133;28;20124;-75
2021/03/20 08:13:15;;;;;;;6.37;4.73;;;12.00;43.40;;;;;;5018517;28;20025;-76
2021/03/20 08:15:44;;;;;;;7.77;4.90;;;12.00;45.40;;;;;;5026193;28;20025;-75
2021/03/20 08:18:12;;;;;;;4.63;2.70;;;12.20;45.80;;;;;;5024715;28;20033;-75
2021/03/20 08:20:39;;;;;;;5.30;2.87;;;12.30;42.80;;;;;;5007468;28;20087;-79
2021/03/20 08:23:27;;;;;;;9.30;6.33;;;12.30;43.00;;;;;;4990678;28;20060;-75
2021/03/20 08:26:25;;;;;;;5.37;3.53;;;12.30;43.70;;;;;;5024527;28;20033;-74
2021/03/20 08:28:57;;;;;;;5.93;3.37;;;12.50;44.20;;;;;;5002310;28;20049;-73
2021/03/20 08:31:49;;;;;;;7.28;4.47;;;13.00;42.60;;;;;;5026700;28;20025;-73
2021/03/20 08:34:36;;;;;;;3.67;1.80;;;13.50;42.50;;;;;;5026978;28;20061;-77
2021/03/20 08:37:29;;;;;;;5.32;3.20;;;13.30;39.50;;;;;;5024897;28;20176;-78
2021/03/20 08:40:08;;;;;;;6.97;4.88;;;12.00;41.00;;;;;;5026177;28;20061;-75
2021/03/20 08:42:39;;;;;;;17.30;13.27;;;11.80;44.10;;;;;;5007979;28;20025;-81
2021/03/20 08:45:31;;;;;;;5.05;3.72;;;12.40;46.70;;;;;;5002942;28;20136;-77
2021/03/20 08:48:35;;;;;;;13.25;9.27;;;13.30;42.30;;;;;;4990095;28;20041;-77
2021/03/20 08:51:22;;;;;;;4.13;3.15;;;13.30;41.80;;;;;;5008439;28;20037;-74
2021/03/20 08:54:00;;;;;;;14.05;10.20;;;13.30;40.50;;;;;;5007582;28;20032;-76
2021/03/20 08:56:40;;;;;;;14.07;10.23;;;13.30;43.40;;;;;;5022652;28;20018;-75
2021/03/20 08:59:26;;;;;;;8.23;5.50;;;14.00;43.00;;;;;;5005615;28;20658;-75
2021/03/20 09:02:17;;;;;;;17.63;13.07;;;13.90;38.90;;;;;;5004784;28;20013;-73
2021/03/20 09:04:43;;;;;;;9.75;6.75;;;13.30;43.20;;;;;;5020866;28;20025;-74
2021/03/20 09:07:19;;;;;;;12.30;8.55;;;13.10;39.60;;;;;;5027217;28;20044;-76
2021/03/20 09:09:53;;;;;;;4.72;2.90;;;13.50;42.40;;;;;;5008320;28;20017;-75
2021/03/20 09:12:25;;;;;;;4.57;3.63;;;13.00;37.50;;;;;;5016834;28;20036;-75
2021/03/20 09:14:51;;;;;;;7.05;5.03;;;12.80;38.40;;;;;;5028446;28;20032;-75
2021/03/20 09:17:28;;;;;;;11.68;7.95;;;12.90;39.80;;;;;;5001090;28;20102;-76
2021/03/20 09:20:20;;;;;;;6.53;3.85;;;13.60;41.70;;;;;;5006653;28;20022;-74
2021/03/20 09:22:48;;;;;;;9.55;6.78;;;13.90;37.30;;;;;;5025495;28;20381;-75
2021/03/20 09:25:31;;;;;;;10.07;6.60;;;13.40;37.50;;;;;;4991344;28;20628;-75
2021/03/20 09:28:10;;;;;;;8.88;6.93;;;13.60;39.40;;;;;;5007233;28;20061;-75
2021/03/20 09:30:41;;;;;;;5.78;3.92;;;12.90;39.10;;;;;;5005562;28;20101;-80
2021/03/20 09:33:14;;;;;;;12.70;8.75;;;13.20;39.40;;;;;;5028280;28;20033;-74
2021/03/20 09:35:47;;;;;;;4.43;3.47;;;12.60;39.60;;;;;;5025205;28;20132;-76
2021/03/20 09:38:36;;;;;;;10.43;7.47;;;12.60;37.70;;;;;;5024951;28;20529;-74
2021/03/20 09:41:12;;;;;;;6.40;4.03;;;12.80;40.20;;;;;;5023960;28;20101;-76
2021/03/20 09:43:55;;;;;;;4.05;2.85;;;13.20;39.00;;;;;;5006549;28;20021;-80
2021/03/20 09:46:39;;;;;;;5.03;3.42;;;13.40;36.30;;;;;;5024242;28;20034;-74
2021/03/20 09:49:08;;;;;;;3.83;1.95;;;13.30;35.10;;;;;;5005274;28;20065;-74
2021/03/20 09:51:58;;;;;;;4.37;2.17;;;12.40;35.20;;;;;;5024496;28;20507;-76
2021/03/20 09:54:24;;;;;;;4.63;3.07;;;11.90;36.10;;;;;;5020824;28;20503;-80
2021/03/20 09:56:55;;;;;;;6.90;4.60;;;11.30;37.00;;;;;;5002302;28;20116;-75
2021/03/20 09:59:27;;;;;;;11.33;7.73;;;11.60;40.00;;;;;;4991174;28;20029;-77
2021/03/20 10:01:54;;;;;;;6.37;4.67;;;12.70;41.30;;;;;;5028157;28;20088;-81
2021/03/20 10:05:04;;;;;;;10.50;6.95;;;13.70;38.80;;;;;;5002873;28;20038;-75
2021/03/20 10:07:35;;;;;;;4.00;2.63;;;13.60;37.10;;;;;;5021943;28;20033;-78
2021/03/20 10:10:27;;;;;;;9.63;5.90;;;13.50;34.70;;;;;;4986868;28;20543;-75
2021/03/20 10:13:13;;;;;;;3.00;2.33;;;13.10;35.10;;;;;;5001263;28;20052;-75
2021/03/20 10:15:55;;;;;;;2.50;1.77;;;12.80;35.20;;;;;;5022637;28;20119;-82
2021/03/20 10:18:27;;;;;;;3.43;1.63;;;12.30;34.30;;;;;;5004441;28;20060;-76
2021/03/20 10:20:56;;;;;;;7.28;5.10;;;12.20;36.10;;;;;;5022341;28;20060;-74
2021/03/20 10:23:40;;;;;;;5.93;3.97;;;12.10;36.20;;;;;;5005033;28;20065;-79
2021/03/20 10:26:15;;;;;;;4.57;2.83;;;12.90;36.80;;;;;;5020662;28;20083;-75
2021/03/20 10:28:49;;;;;;;7.85;5.13;;;13.30;34.80;;;;;;5020565;28;20033;-81
2021/03/20 10:31:17;;;;;;;10.20;7.50;;;13.40;36.70;;;;;;5017339;28;20410;-79
2021/03/20 10:33:45;;;;;;;6.90;5.47;;;14.00;36.80;;;;;;4984802;28;20495;-83
2021/03/20 10:36:21;;;;;;;6.22;4.20;;;14.60;35.70;;;;;;5019102;28;20029;-74
2021/03/20 10:38:49;;;;;;;8.02;5.65;;;15.10;34.00;;;;;;5018980;28;20060;-80
2021/03/20 10:41:21;;;;;;;4.13;2.15;;;15.40;34.00;;;;;;4985129;28;20026;-78
2021/03/20 10:43:58;;;;;;;2.80;1.98;;;15.60;32.30;;;;;;5002476;28;20084;-82
2021/03/20 10:46:29;;;;;;;4.38;2.40;;;15.70;31.60;;;;;;5023090;28;20021;-76
2021/03/20 10:48:57;;;;;;;2.80;1.73;;;15.00;31.50;;;;;;5001157;28;20045;-76
2021/03/20 10:51:26;;;;;;;6.97;4.53;;;14.00;30.10;;;;;;5020555;28;20033;-76
2021/03/20 10:53:55;;;;;;;4.75;1.92;;;14.20;34.10;;;;;;5003987;28;20036;-79
2021/03/20 10:56:32;;;;;;;4.68;3.00;;;14.70;31.30;;;;;;5002717;28;20060;-75
2021/03/20 10:59:14;;;;;;;3.10;0.80;;;14.60;33.20;;;;;;5023571;28;20029;-78
2021/03/20 11:01:39;;;;;;;4.90;3.47;;;14.40;30.00;;;;;;5007773;28;20026;-74
2021/03/20 11:04:10;;;;;;;4.18;2.92;;;14.10;32.70;;;;;;5024938;28;20022;-79
2021/03/20 11:06:35;;;;;;;4.68;1.50;;;14.40;33.60;;;;;;5006901;28;20030;-74
2021/03/20 11:09:24;;;;;;;4.07;2.55;;;14.80;30.90;;;;;;5004711;28;20095;-75
2021/03/20 11:11:59;;;;;;;4.45;2.38;;;14.30;31.80;;;;;;5019543;28;20030;-75
2021/03/20 11:14:25;;;;;;;5.80;2.90;;;13.70;31.60;;;;;;5022020;28;20501;-76
2021/03/20 11:17:05;;;;;;;5.82;3.38;;;13.80;32.50;;;;;;4989805;28;20029;-76
2021/03/20 11:19:35;;;;;;;4.15;2.72;;;14.50;34.30;;;;;;5005012;28;20036;-80
2021/03/20 11:22:14;;;;;;;7.05;4.18;;;15.10;32.80;;;;;;5020109;28;20133;-73
2021/03/20 11:24:40;;;;;;;7.53;5.40;;;15.00;34.20;;;;;;5003106;28;20110;-75
2021/03/20 11:27:19;;;;;;;4.90;2.25;;;15.40;35.60;;;;;;5025539;28;20352;-77
2021/03/20 11:29:49;;;;;;;12.80;8.30;;;15.60;32.80;;;;;;5007496;28;20030;-79
2021/03/20 11:32:36;;;;;;;5.40;3.50;;;15.90;33.70;;;;;;5022137;28;20030;-75
2021/03/20 11:35:08;;;;;;;6.78;5.07;;;15.50;30.80;;;;;;5017241;28;20381;-76
2021/03/20 11:37:34;;;;;;;6.97;5.25;;;15.30;33.50;;;;;;5026520;28;20041;-77
2021/03/20 11:40:04;;;;;;;3.00;1.60;;;15.30;33.90;;;;;;5020511;28;20034;-77
2021/03/20 11:42:38;;;;;;;4.00;3.15;;;15.20;31.40;;;;;;5034328;28;20064;-77
2021/03/20 11:45:17;;;;;;;9.27;4.75;;;14.00;33.30;;;;;;5017953;28;20021;-74
2021/03/20 11:47:52;;;;;;;5.25;4.07;;;14.10;34.80;;;;;;5010292;28;20039;-76
2021/03/20 11:50:24;;;;;;;5.75;4.07;;;14.40;34.90;;;;;;5007560;28;20080;-76
2021/03/20 11:52:52;;;;;;;3.20;2.03;;;13.80;33.10;;;;;;5002657;28;20018;-80
2021/03/20 11:55:28;;;;;;;8.52;7.10;;;13.30;33.50;;;;;;5030449;28;20037;-76
2021/03/20 11:58:00;;;;;;;5.00;3.13;;;13.10;36.50;;;;;;5032469;28;20029;-76
2021/03/20 12:00:46;;;;;;;4.17;2.50;;;13.40;35.80;;;;;;5027056;28;20029;-77
2021/03/20 12:03:21;;;;;;;7.23;5.30;;;12.60;36.20;;;;;;5023738;28;20038;-76
2021/03/20 12:05:47;;;;;;;4.82;4.15;;;12.90;37.90;;;;;;5019656;28;20029;-77
2021/03/20 12:08:25;;;;;;;15.70;9.90;;;13.60;37.40;;;;;;5007903;28;20082;-74
2021/03/20 12:11:01;;;;;;;13.88;10.07;;;13.70;35.10;;;;;;5030883;28;20018;-81
2021/03/20 12:13:49;;;;;;;9.73;6.03;;;13.90;36.10;;;;;;5005050;28;20038;-76
2021/03/20 12:16:43;;;;;;;6.22;4.28;;;14.30;34.90;;;;;;5014794;28;20370;-79
2021/03/20 12:19:15;;;;;;;;;;;13.30;34.00;;;;;;5003879;28;20140;-77
2021/03/20 12:21:59;;;;;;;10.73;7.67;;;12.30;34.30;;;;;;5016628;28;19909;-77
2021/03/20 12:24:45;;;;;;;8.77;6.53;;;12.20;38.90;;;;;;5016536;28;20041;-76
2021/03/20 12:27:32;;;;;;;7.50;5.67;;;13.00;40.20;;;;;;5014425;28;20044;-77
2021/03/20 12:30:26;;;;;;;10.13;7.47;;;13.70;38.70;;;;;;5016949;28;20083;-77
2021/03/20 12:33:11;;;;;;;;;;;13.80;37.20;;;;;;5035831;28;20022;-76
2021/03/20 12:35:39;;;;;;;10.65;7.40;;;14.00;37.50;;;;;;5017699;28;20332;-76
2021/03/20 12:38:12;;;;;;;8.63;6.37;;;14.20;38.60;;;;;;5036013;28;20099;-77
2021/03/20 12:40:38;;;;;;;;;;;14.30;36.40;;;;;;5020801;28;20358;-76
2021/03/20 12:43:06;;;;;;;15.43;10.60;;;14.30;36.60;;;;;;5020196;28;20344;-77
2021/03/20 12:45:33;;;;;;;13.75;9.77;;;14.10;39.30;;;;;;5036285;28;20060;-77
2021/03/20 12:48:00;;;;;;;5.93;2.72;;;14.40;39.30;;;;;;5031096;28;20044;-80
2021/03/20 12:50:26;;;;;;;3.42;2.47;;;14.30;35.70;;;;;;5023000;28;20056;-77
2021/03/20 12:52:51;;;;;;;8.47;6.83;;;13.90;34.60;;;;;;5000744;28;20030;-77
2021/03/20 12:55:17;;;;;;;13.02;9.60;;;13.50;37.40;;;;;;4987209;28;20549;-77
2021/03/20 12:57:43;;;;;;;11.10;7.93;;;13.70;39.50;;;;;;5003626;28;20034;-77
2021/03/20 13:00:18;;;;;;;6.30;5.28;;;13.80;39.50;;;;;;4988925;28;20106;-76
2021/03/20 13:02:44;;;;;;;3.53;2.88;;;14.10;37.90;;;;;;5020766;28;20117;-76
2021/03/20 13:05:32;;;;;;;5.88;4.82;;;14.00;35.40;;;;;;5021109;28;20061;-75
2021/03/20 13:07:58;;;;;;;11.60;8.80;;;13.10;37.50;;;;;;5036984;28;20040;-81
2021/03/20 13:10:25;;;;;;;10.47;6.47;;;13.20;39.90;;;;;;4999058;28;20026;-75
2021/03/20 13:12:50;;;;;;;7.65;5.55;;;13.40;39.50;;;;;;4999529;28;20386;-76
2021/03/20 13:15:18;;;;;;;10.32;7.95;;;13.80;38.40;;;;;;4999814;28;20041;-78
2021/03/20 13:17:44;;;;;;;10.05;6.97;;;13.90;38.60;;;;;;5015878;28;20390;-76
2021/03/20 13:20:10;;;;;;;7.32;5.65;;;14.10;39.10;;;;;;5014993;28;20022;-76
2021/03/20 13:22:36;;;;;;;9.23;6.78;;;14.10;38.80;;;;;;5015611;28;20032;-76
2021/03/20 13:25:04;;;;;;;6.80;4.97;;;14.00;38.30;;;;;;5021473;28;20045;-82
2021/03/20 13:27:30;;;;;;;7.47;6.00;;;13.90;37.90;;;;;;5031434;28;20044;-74
2021/03/20 13:29:55;;;;;;;10.82;8.27;;;13.90;38.30;;;;;;5017641;28;20174;-75
2021/03/20 13:32:21;;;;;;;8.82;6.95;;;13.80;38.70;;;;;;5016194;28;20029;-74